METAR Data
IDs: Format: Raw Decoded Include TAF

Data at: 1043 UTC 19 Jan 2019

EGPH 191020Z VRB02KT 8000 BKN020 02/02 Q1009
EGPH 190950Z VRB03KT 7000 BKN022 01/01 Q1009
EGPH 190920Z VRB01KT 5000 BR BKN024 01/00 Q1008
EGPH 190850Z 25002KT 4500 BR BKN024 00/00 Q1008
EGPH 190820Z 32001KT 4500 BR BKN024 00/M00 Q1008
EGPH 190750Z 25002KT 5000 BR SCT024 00/M00 Q1007
EGPH 190720Z VRB02KT 9000 SCT024 01/00 Q1007
EGPH 190650Z 02002KT 9000 SCT025 01/00 Q1007
EGPH 190620Z VRB03KT 2900 BR OVC025 01/01 Q1007
EGPH 190550Z 13003KT 9999 -RA OVC026 01/01 Q1007
EGPH 190520Z VRB02KT 9999 -RA OVC026 02/01 Q1007
EGPH 190450Z 25002KT 8000 OVC025 01/01 Q1007
EGPH 190420Z 31002KT 8000 OVC023 01/01 Q1007
EGPH 190350Z 22001KT 3200 HZ OVC026 01/00 Q1007
EGPH 190320Z 34002KT 5000 -RA BKN019 OVC037 01/00 Q1007
EGPH 190250Z 31002KT 6000 -RA BKN021 02/00 Q1007
EGPH 190220Z 06002KT 9999 SCT020 OVC037 02/00 Q1007
EGPH 190150Z 07002KT 9000 BKN021 OVC037 02/00 Q1007
EGPH 190120Z VRB03KT 9999 OVC021 02/00 Q1007
EGPH 190050Z 06003KT 9999 OVC021 02/00 Q1007
EGPH 190020Z 08004KT 9999 -RA OVC021 02/00 Q1007
EGPH 182350Z 08005KT 9999 -RA OVC022 02/00 Q1008
EGPH 182320Z 07004KT 9999 -RA OVC023 02/00 Q1008
EGPH 182250Z 07005KT 9999 OVC022 02/00 Q1008
EGPH 182220Z 06005KT 9999 OVC023 02/00 Q1008
EGPH 182150Z 08005KT 8000 -RA OVC022TCU 02/M00 Q1008
EGPH 182120Z 09005KT 9999 -RA OVC024 02/M00 Q1008
EGPH 182050Z 09006KT 9999 BKN020 02/M00 Q1008
EGPH 182020Z 09007KT 030V110 9999 -RA BKN020 02/M01 Q1008
EGPH 181950Z VRB07KT 9999 BKN020 03/M01 Q1008
EGPH 181920Z 09008KT 9999 BKN020 03/M01 Q1008
EGPH 181850Z 09007KT 9999 BKN021 02/M01 Q1008
EGPH 181820Z 09008KT 9999 BKN022 02/M01 Q1008
EGPH 181750Z 07008KT 9999 SCT020 BKN049 02/M02 Q1008
EGPH 181720Z 07008KT CAVOK 02/M02 Q1008
EGPH 181650Z 07006KT CAVOK 02/M03 Q1009
EGPH 181620Z 09006KT CAVOK 03/M03 Q1009
EGPH 181550Z 10007KT CAVOK 03/M04 Q1009
EGPH 181520Z 10006KT CAVOK 03/M04 Q1009
EGPH 181450Z 10004KT 050V130 CAVOK 03/M04 Q1009
EGPH 181420Z 12007KT CAVOK 03/M04 Q1009
EGPH 181350Z 12011KT CAVOK 04/M04 Q1010
EGPH 181320Z 12009KT CAVOK 04/M04 Q1010
EGPH 181250Z 08004KT 020V180 CAVOK 04/M04 Q1010
EGPH 181220Z VRB03KT CAVOK 04/M04 Q1011
EGPH 181150Z VRB02KT CAVOK 04/M04 Q1011
EGPH 181120Z VRB02KT CAVOK 02/M04 Q1011
EGPH 181050Z 09005KT CAVOK 02/M03 Q1012
EGPH 181020Z 07004KT 050V120 CAVOK 00/M03 Q1012
EGPH 180950Z VRB03KT CAVOK M02/M04 Q1012
EGPH 180920Z 05004KT CAVOK M02/M04 Q1012
EGPH 180850Z 04004KT CAVOK M03/M04 Q1012
EGPH 180820Z 04004KT 360V080 CAVOK M04/M04 Q1012
EGPH 180750Z VRB03KT CAVOK M05/M05 Q1012
EGPH 180720Z VRB02KT CAVOK M06/M06 Q1012
EGPH 180650Z 00000KT CAVOK M05/M06 Q1013
EGPH 180620Z VRB01KT CAVOK M05/M06 Q1013
EGPH 180550Z VRB02KT CAVOK M04/M05 Q1013
EGPH 180520Z VRB01KT CAVOK M04/M05 Q1013
EGPH 180450Z 24003KT CAVOK M05/M05 Q1013
EGPH 180420Z VRB01KT CAVOK M04/M05 Q1014
EGPH 180320Z VRB01KT CAVOK M04/M05 Q1014
EGPH 180250Z 07001KT CAVOK M04/M05 Q1015
EGPH 180220Z 24003KT CAVOK M04/M05 Q1015
EGPH 180150Z 03001KT CAVOK M03/M04 Q1015
EGPH 180120Z 00000KT CAVOK M02/M04 Q1015
EGPH 180050Z 00000KT CAVOK M02/M04 Q1016
EGPH 180020Z 00000KT CAVOK M02/M04 Q1016
EGPH 172350Z 24003KT CAVOK M02/M03 Q1016
EGPH 172320Z 00000KT CAVOK M02/M03 Q1016
EGPH 172250Z 28002KT CAVOK M02/M03 Q1016